sensor_id;sensor_type;location;lat;lon;timestamp;temperature;humidity
4097;DHT22;2062;50.694;7.246;2022-10-31T00:01:50;24.00;39.60
4097;DHT22;2062;50.694;7.246;2022-10-31T00:04:17;23.90;39.60
4097;DHT22;2062;50.694;7.246;2022-10-31T00:06:44;23.90;39.60
4097;DHT22;2062;50.694;7.246;2022-10-31T00:09:12;23.90;39.60
4097;DHT22;2062;50.694;7.246;2022-10-31T00:11:39;23.90;39.60
4097;DHT22;2062;50.694;7.246;2022-10-31T00:14:06;24.00;39.60
4097;DHT22;2062;50.694;7.246;2022-10-31T00:16:33;24.00;39.60
4097;DHT22;2062;50.694;7.246;2022-10-31T00:19:02;24.00;39.60
4097;DHT22;2062;50.694;7.246;2022-10-31T00:21:30;24.00;39.60
4097;DHT22;2062;50.694;7.246;2022-10-31T00:23:57;24.00;39.60
4097;DHT22;2062;50.694;7.246;2022-10-31T00:26:26;23.90;40.30
4097;DHT22;2062;50.694;7.246;2022-10-31T00:28:53;24.00;39.60
4097;DHT22;2062;50.694;7.246;2022-10-31T00:31:20;23.90;39.60
4097;DHT22;2062;50.694;7.246;2022-10-31T00:33:47;23.90;39.60
4097;DHT22;2062;50.694;7.246;2022-10-31T00:36:15;23.90;39.60
4097;DHT22;2062;50.694;7.246;2022-10-31T00:38:43;24.00;39.70
4097;DHT22;2062;50.694;7.246;2022-10-31T00:41:11;23.90;39.60
4097;DHT22;2062;50.694;7.246;2022-10-31T00:43:39;23.90;39.60
4097;DHT22;2062;50.694;7.246;2022-10-31T00:46:06;23.90;39.60
4097;DHT22;2062;50.694;7.246;2022-10-31T00:48:33;23.90;39.60
4097;DHT22;2062;50.694;7.246;2022-10-31T00:51:00;23.90;39.60
4097;DHT22;2062;50.694;7.246;2022-10-31T00:53:26;23.90;39.70
4097;DHT22;2062;50.694;7.246;2022-10-31T00:55:53;23.90;39.60
4097;DHT22;2062;50.694;7.246;2022-10-31T00:58:20;23.90;39.60
4097;DHT22;2062;50.694;7.246;2022-10-31T01:00:48;23.90;39.60
4097;DHT22;2062;50.694;7.246;2022-10-31T01:03:20;23.90;39.60
4097;DHT22;2062;50.694;7.246;2022-10-31T01:05:56;23.90;39.60
4097;DHT22;2062;50.694;7.246;2022-10-31T01:08:23;23.90;39.60
4097;DHT22;2062;50.694;7.246;2022-10-31T01:10:59;23.90;39.60
4097;DHT22;2062;50.694;7.246;2022-10-31T01:13:26;23.90;39.70
4097;DHT22;2062;50.694;7.246;2022-10-31T01:15:55;23.90;39.60
4097;DHT22;2062;50.694;7.246;2022-10-31T01:18:22;23.80;39.60
4097;DHT22;2062;50.694;7.246;2022-10-31T01:20:57;23.90;39.70
4097;DHT22;2062;50.694;7.246;2022-10-31T01:23:24;23.90;39.70
4097;DHT22;2062;50.694;7.246;2022-10-31T01:26:02;23.90;39.60
4097;DHT22;2062;50.694;7.246;2022-10-31T01:28:29;23.90;39.60
4097;DHT22;2062;50.694;7.246;2022-10-31T01:31:00;23.90;39.70
4097;DHT22;2062;50.694;7.246;2022-10-31T01:33:27;23.90;39.60
4097;DHT22;2062;50.694;7.246;2022-10-31T01:35:53;23.90;39.70
4097;DHT22;2062;50.694;7.246;2022-10-31T01:38:20;23.90;39.70
4097;DHT22;2062;50.694;7.246;2022-10-31T01:40:47;23.90;39.70
4097;DHT22;2062;50.694;7.246;2022-10-31T01:43:14;23.90;39.60
4097;DHT22;2062;50.694;7.246;2022-10-31T01:45:41;23.90;39.60
4097;DHT22;2062;50.694;7.246;2022-10-31T01:48:14;23.80;39.60
4097;DHT22;2062;50.694;7.246;2022-10-31T01:50:43;23.90;39.60
4097;DHT22;2062;50.694;7.246;2022-10-31T01:53:15;23.90;39.70
4097;DHT22;2062;50.694;7.246;2022-10-31T01:55:44;23.90;39.70
4097;DHT22;2062;50.694;7.246;2022-10-31T01:58:13;23.80;39.60
4097;DHT22;2062;50.694;7.246;2022-10-31T02:00:43;23.80;39.60
4097;DHT22;2062;50.694;7.246;2022-10-31T02:03:13;23.90;39.70
4097;DHT22;2062;50.694;7.246;2022-10-31T02:05:41;23.90;39.70
4097;DHT22;2062;50.694;7.246;2022-10-31T02:08:12;23.90;39.70
4097;DHT22;2062;50.694;7.246;2022-10-31T02:10:40;23.80;39.60
4097;DHT22;2062;50.694;7.246;2022-10-31T02:13:09;23.80;39.60
4097;DHT22;2062;50.694;7.246;2022-10-31T02:15:37;23.90;39.70
4097;DHT22;2062;50.694;7.246;2022-10-31T02:18:04;23.80;39.60
4097;DHT22;2062;50.694;7.246;2022-10-31T02:20:40;23.90;39.70
4097;DHT22;2062;50.694;7.246;2022-10-31T02:23:43;23.90;39.70
4097;DHT22;2062;50.694;7.246;2022-10-31T02:26:27;23.80;39.60
4097;DHT22;2062;50.694;7.246;2022-10-31T02:29:26;23.80;39.60
4097;DHT22;2062;50.694;7.246;2022-10-31T02:32:01;23.80;39.60
4097;DHT22;2062;50.694;7.246;2022-10-31T02:34:37;23.90;39.70
4097;DHT22;2062;50.694;7.246;2022-10-31T02:37:12;23.80;39.60
4097;DHT22;2062;50.694;7.246;2022-10-31T02:39:47;23.80;39.60
4097;DHT22;2062;50.694;7.246;2022-10-31T02:42:25;23.80;39.60
4097;DHT22;2062;50.694;7.246;2022-10-31T02:44:58;23.80;39.60
4097;DHT22;2062;50.694;7.246;2022-10-31T02:47:29;23.80;39.60
4097;DHT22;2062;50.694;7.246;2022-10-31T02:50:02;23.80;39.70
4097;DHT22;2062;50.694;7.246;2022-10-31T02:52:32;23.80;39.60
4097;DHT22;2062;50.694;7.246;2022-10-31T02:55:10;23.80;39.60
4097;DHT22;2062;50.694;7.246;2022-10-31T02:57:40;23.80;39.70
4097;DHT22;2062;50.694;7.246;2022-10-31T03:00:09;23.80;39.70
4097;DHT22;2062;50.694;7.246;2022-10-31T03:02:54;23.80;39.70
4097;DHT22;2062;50.694;7.246;2022-10-31T03:05:32;23.80;40.30
4097;DHT22;2062;50.694;7.246;2022-10-31T03:08:08;23.80;39.70
4097;DHT22;2062;50.694;7.246;2022-10-31T03:10:40;23.80;39.70
4097;DHT22;2062;50.694;7.246;2022-10-31T03:13:12;23.80;39.70
4097;DHT22;2062;50.694;7.246;2022-10-31T03:15:44;23.80;39.70
4097;DHT22;2062;50.694;7.246;2022-10-31T03:18:16;23.80;39.70
4097;DHT22;2062;50.694;7.246;2022-10-31T03:20:50;23.80;39.70
4097;DHT22;2062;50.694;7.246;2022-10-31T03:23:22;23.80;39.70
4097;DHT22;2062;50.694;7.246;2022-10-31T03:25:50;23.80;39.70
4097;DHT22;2062;50.694;7.246;2022-10-31T03:28:29;23.80;39.70
4097;DHT22;2062;50.694;7.246;2022-10-31T03:30:58;23.80;39.70
4097;DHT22;2062;50.694;7.246;2022-10-31T03:33:30;23.80;39.70
4097;DHT22;2062;50.694;7.246;2022-10-31T03:36:02;23.80;39.70
4097;DHT22;2062;50.694;7.246;2022-10-31T03:38:31;23.70;39.70
4097;DHT22;2062;50.694;7.246;2022-10-31T03:41:00;23.80;39.70
4097;DHT22;2062;50.694;7.246;2022-10-31T03:43:32;23.80;39.70
4097;DHT22;2062;50.694;7.246;2022-10-31T03:45:59;23.80;39.60
4097;DHT22;2062;50.694;7.246;2022-10-31T03:48:27;23.80;39.70
4097;DHT22;2062;50.694;7.246;2022-10-31T03:50:59;23.70;39.70
4097;DHT22;2062;50.694;7.246;2022-10-31T03:53:32;23.80;39.70
4097;DHT22;2062;50.694;7.246;2022-10-31T03:56:02;23.80;39.70
4097;DHT22;2062;50.694;7.246;2022-10-31T03:58:35;23.70;39.70
4097;DHT22;2062;50.694;7.246;2022-10-31T04:01:05;23.70;39.70
4097;DHT22;2062;50.694;7.246;2022-10-31T04:03:36;23.80;39.70
4097;DHT22;2062;50.694;7.246;2022-10-31T04:06:06;23.80;39.70
4097;DHT22;2062;50.694;7.246;2022-10-31T04:08:40;23.80;39.70
4097;DHT22;2062;50.694;7.246;2022-10-31T04:11:08;23.70;39.70
4097;DHT22;2062;50.694;7.246;2022-10-31T04:13:37;23.80;39.70
4097;DHT22;2062;50.694;7.246;2022-10-31T04:16:05;23.80;39.70
4097;DHT22;2062;50.694;7.246;2022-10-31T04:18:34;23.70;39.70
4097;DHT22;2062;50.694;7.246;2022-10-31T04:21:02;23.80;39.70
4097;DHT22;2062;50.694;7.246;2022-10-31T04:23:30;23.80;39.70
4097;DHT22;2062;50.694;7.246;2022-10-31T04:25:57;23.80;39.70
4097;DHT22;2062;50.694;7.246;2022-10-31T04:28:24;23.80;39.70
4097;DHT22;2062;50.694;7.246;2022-10-31T04:30:50;23.70;39.70
4097;DHT22;2062;50.694;7.246;2022-10-31T04:33:17;23.80;39.70
4097;DHT22;2062;50.694;7.246;2022-10-31T04:35:46;23.80;39.70
4097;DHT22;2062;50.694;7.246;2022-10-31T04:38:13;23.80;39.70
4097;DHT22;2062;50.694;7.246;2022-10-31T04:40:40;23.70;39.70
4097;DHT22;2062;50.694;7.246;2022-10-31T04:43:06;23.70;39.80
4097;DHT22;2062;50.694;7.246;2022-10-31T04:45:33;23.70;39.70
4097;DHT22;2062;50.694;7.246;2022-10-31T04:48:00;23.70;39.70
4097;DHT22;2062;50.694;7.246;2022-10-31T04:50:26;23.70;39.70
4097;DHT22;2062;50.694;7.246;2022-10-31T04:52:55;23.70;39.70
4097;DHT22;2062;50.694;7.246;2022-10-31T04:55:21;23.70;39.70
4097;DHT22;2062;50.694;7.246;2022-10-31T04:57:49;23.70;39.70
4097;DHT22;2062;50.694;7.246;2022-10-31T05:00:19;23.70;39.70
4097;DHT22;2062;50.694;7.246;2022-10-31T05:02:46;23.70;39.80
4097;DHT22;2062;50.694;7.246;2022-10-31T05:05:13;23.70;39.80
4097;DHT22;2062;50.694;7.246;2022-10-31T05:07:42;23.70;40.00
4097;DHT22;2062;50.694;7.246;2022-10-31T05:10:12;23.70;39.90
4097;DHT22;2062;50.694;7.246;2022-10-31T05:12:46;23.80;39.90
4097;DHT22;2062;50.694;7.246;2022-10-31T05:15:14;23.80;39.90
4097;DHT22;2062;50.694;7.246;2022-10-31T05:17:41;23.80;39.90
4097;DHT22;2062;50.694;7.246;2022-10-31T05:20:08;23.70;39.90
4097;DHT22;2062;50.694;7.246;2022-10-31T05:22:35;23.80;40.10
4097;DHT22;2062;50.694;7.246;2022-10-31T05:25:02;23.80;40.20
4097;DHT22;2062;50.694;7.246;2022-10-31T05:27:31;23.80;40.30
4097;DHT22;2062;50.694;7.246;2022-10-31T05:29:57;23.80;40.50
4097;DHT22;2062;50.694;7.246;2022-10-31T05:32:24;23.80;40.40
4097;DHT22;2062;50.694;7.246;2022-10-31T05:34:51;23.80;40.40
4097;DHT22;2062;50.694;7.246;2022-10-31T05:37:18;23.80;40.50
4097;DHT22;2062;50.694;7.246;2022-10-31T05:39:44;23.80;40.40
4097;DHT22;2062;50.694;7.246;2022-10-31T05:42:11;23.80;40.30
4097;DHT22;2062;50.694;7.246;2022-10-31T05:44:39;23.80;40.90
4097;DHT22;2062;50.694;7.246;2022-10-31T05:47:06;23.90;40.20
4097;DHT22;2062;50.694;7.246;2022-10-31T05:49:33;23.90;40.30
4097;DHT22;2062;50.694;7.246;2022-10-31T05:51:59;23.90;40.20
4097;DHT22;2062;50.694;7.246;2022-10-31T05:54:26;23.90;40.20
4097;DHT22;2062;50.694;7.246;2022-10-31T05:56:53;23.80;40.10
4097;DHT22;2062;50.694;7.246;2022-10-31T05:59:20;23.80;40.10
4097;DHT22;2062;50.694;7.246;2022-10-31T06:01:48;23.80;40.30
4097;DHT22;2062;50.694;7.246;2022-10-31T06:04:15;23.80;40.40
4097;DHT22;2062;50.694;7.246;2022-10-31T06:06:41;23.90;40.40
4097;DHT22;2062;50.694;7.246;2022-10-31T06:09:09;23.90;40.40
4097;DHT22;2062;50.694;7.246;2022-10-31T06:11:36;23.90;40.50
4097;DHT22;2062;50.694;7.246;2022-10-31T06:14:03;23.90;40.60
4097;DHT22;2062;50.694;7.246;2022-10-31T06:16:30;23.90;40.60
4097;DHT22;2062;50.694;7.246;2022-10-31T06:18:58;23.90;40.70
4097;DHT22;2062;50.694;7.246;2022-10-31T06:21:25;23.90;40.70
4097;DHT22;2062;50.694;7.246;2022-10-31T06:23:51;23.90;40.80
4097;DHT22;2062;50.694;7.246;2022-10-31T06:26:18;23.90;40.80
4097;DHT22;2062;50.694;7.246;2022-10-31T06:28:45;23.90;41.00
4097;DHT22;2062;50.694;7.246;2022-10-31T06:31:12;23.90;41.10
4097;DHT22;2062;50.694;7.246;2022-10-31T06:33:40;23.90;40.90
4097;DHT22;2062;50.694;7.246;2022-10-31T06:36:09;23.90;41.10
4097;DHT22;2062;50.694;7.246;2022-10-31T06:38:36;23.90;40.60
4097;DHT22;2062;50.694;7.246;2022-10-31T06:41:03;23.90;40.40
4097;DHT22;2062;50.694;7.246;2022-10-31T06:43:30;23.90;40.50
4097;DHT22;2062;50.694;7.246;2022-10-31T06:46:01;23.90;40.70
4097;DHT22;2062;50.694;7.246;2022-10-31T06:48:28;23.90;40.80
4097;DHT22;2062;50.694;7.246;2022-10-31T06:50:57;23.90;40.80
4097;DHT22;2062;50.694;7.246;2022-10-31T06:53:25;23.90;41.00
4097;DHT22;2062;50.694;7.246;2022-10-31T06:55:52;23.90;41.00
4097;DHT22;2062;50.694;7.246;2022-10-31T06:58:19;23.90;41.00
4097;DHT22;2062;50.694;7.246;2022-10-31T07:00:45;23.90;41.10
4097;DHT22;2062;50.694;7.246;2022-10-31T07:03:13;23.90;41.10
4097;DHT22;2062;50.694;7.246;2022-10-31T07:05:41;23.90;41.10
4097;DHT22;2062;50.694;7.246;2022-10-31T07:08:09;23.90;41.20
4097;DHT22;2062;50.694;7.246;2022-10-31T07:10:39;23.90;41.10
4097;DHT22;2062;50.694;7.246;2022-10-31T07:13:08;24.00;41.10
4097;DHT22;2062;50.694;7.246;2022-10-31T07:15:37;23.90;41.20
4097;DHT22;2062;50.694;7.246;2022-10-31T07:18:06;23.90;41.20
4097;DHT22;2062;50.694;7.246;2022-10-31T07:20:33;23.90;41.30
4097;DHT22;2062;50.694;7.246;2022-10-31T07:23:00;23.90;41.20
4097;DHT22;2062;50.694;7.246;2022-10-31T07:25:27;24.00;41.30
4097;DHT22;2062;50.694;7.246;2022-10-31T07:27:55;23.90;41.30
4097;DHT22;2062;50.694;7.246;2022-10-31T07:30:22;23.90;41.40
4097;DHT22;2062;50.694;7.246;2022-10-31T07:32:49;23.90;41.30
4097;DHT22;2062;50.694;7.246;2022-10-31T07:35:18;24.00;41.30
4097;DHT22;2062;50.694;7.246;2022-10-31T07:37:45;23.90;41.30
4097;DHT22;2062;50.694;7.246;2022-10-31T07:40:12;24.00;41.30
4097;DHT22;2062;50.694;7.246;2022-10-31T07:42:41;23.90;41.50
4097;DHT22;2062;50.694;7.246;2022-10-31T07:45:11;23.90;41.40
4097;DHT22;2062;50.694;7.246;2022-10-31T07:47:38;24.00;41.50
4097;DHT22;2062;50.694;7.246;2022-10-31T07:50:07;24.00;41.60
4097;DHT22;2062;50.694;7.246;2022-10-31T07:52:34;24.00;41.40
4097;DHT22;2062;50.694;7.246;2022-10-31T07:55:01;24.00;40.70
4097;DHT22;2062;50.694;7.246;2022-10-31T07:57:28;23.90;40.60
4097;DHT22;2062;50.694;7.246;2022-10-31T07:59:55;24.00;40.50
4097;DHT22;2062;50.694;7.246;2022-10-31T08:02:23;24.00;40.70
4097;DHT22;2062;50.694;7.246;2022-10-31T08:04:54;23.90;40.70
4097;DHT22;2062;50.694;7.246;2022-10-31T08:07:22;23.90;40.70
4097;DHT22;2062;50.694;7.246;2022-10-31T08:09:51;23.90;40.80
4097;DHT22;2062;50.694;7.246;2022-10-31T08:12:20;24.00;40.90
4097;DHT22;2062;50.694;7.246;2022-10-31T08:14:48;23.90;40.90
4097;DHT22;2062;50.694;7.246;2022-10-31T08:17:15;24.00;40.80
4097;DHT22;2062;50.694;7.246;2022-10-31T08:19:43;23.90;41.00
4097;DHT22;2062;50.694;7.246;2022-10-31T08:22:10;24.00;41.00
4097;DHT22;2062;50.694;7.246;2022-10-31T08:24:37;23.90;40.90
4097;DHT22;2062;50.694;7.246;2022-10-31T08:27:03;23.90;40.50
4097;DHT22;2062;50.694;7.246;2022-10-31T08:29:30;23.90;40.20
4097;DHT22;2062;50.694;7.246;2022-10-31T08:31:58;23.90;39.90
4097;DHT22;2062;50.694;7.246;2022-10-31T08:34:25;23.90;40.20
4097;DHT22;2062;50.694;7.246;2022-10-31T08:37:03;23.90;40.40
4097;DHT22;2062;50.694;7.246;2022-10-31T08:39:31;23.90;40.50
4097;DHT22;2062;50.694;7.246;2022-10-31T08:41:58;23.90;40.60
4097;DHT22;2062;50.694;7.246;2022-10-31T08:44:25;23.90;40.70
4097;DHT22;2062;50.694;7.246;2022-10-31T08:46:52;24.00;40.80
4097;DHT22;2062;50.694;7.246;2022-10-31T08:49:19;24.00;40.90
4097;DHT22;2062;50.694;7.246;2022-10-31T08:51:47;23.90;40.90
4097;DHT22;2062;50.694;7.246;2022-10-31T08:54:15;23.90;40.80
4097;DHT22;2062;50.694;7.246;2022-10-31T08:56:42;23.90;40.80
4097;DHT22;2062;50.694;7.246;2022-10-31T08:59:09;23.90;40.80
4097;DHT22;2062;50.694;7.246;2022-10-31T09:01:36;23.90;40.80
4097;DHT22;2062;50.694;7.246;2022-10-31T09:04:03;23.90;40.80
4097;DHT22;2062;50.694;7.246;2022-10-31T09:06:29;23.90;40.90
4097;DHT22;2062;50.694;7.246;2022-10-31T09:08:56;24.00;41.00
4097;DHT22;2062;50.694;7.246;2022-10-31T09:11:24;23.90;40.70
4097;DHT22;2062;50.694;7.246;2022-10-31T09:13:52;24.00;40.20
4097;DHT22;2062;50.694;7.246;2022-10-31T09:16:18;23.90;39.90
4097;DHT22;2062;50.694;7.246;2022-10-31T09:18:45;23.90;39.70
4097;DHT22;2062;50.694;7.246;2022-10-31T09:21:12;24.00;39.60
4097;DHT22;2062;50.694;7.246;2022-10-31T09:23:39;23.90;39.30
4097;DHT22;2062;50.694;7.246;2022-10-31T09:26:06;23.90;39.50
4097;DHT22;2062;50.694;7.246;2022-10-31T09:28:34;23.90;39.50
4097;DHT22;2062;50.694;7.246;2022-10-31T09:31:01;23.80;39.60
4097;DHT22;2062;50.694;7.246;2022-10-31T09:33:27;23.90;39.80
4097;DHT22;2062;50.694;7.246;2022-10-31T09:35:54;23.90;40.00
4097;DHT22;2062;50.694;7.246;2022-10-31T09:38:21;23.90;40.20
4097;DHT22;2062;50.694;7.246;2022-10-31T09:40:54;23.90;40.40
4097;DHT22;2062;50.694;7.246;2022-10-31T09:43:27;23.90;40.40
4097;DHT22;2062;50.694;7.246;2022-10-31T09:46:03;23.90;40.40
4097;DHT22;2062;50.694;7.246;2022-10-31T09:48:40;23.90;40.40
4097;DHT22;2062;50.694;7.246;2022-10-31T09:51:12;23.90;40.30
4097;DHT22;2062;50.694;7.246;2022-10-31T09:53:42;23.90;40.30
4097;DHT22;2062;50.694;7.246;2022-10-31T09:56:13;23.90;40.10
4097;DHT22;2062;50.694;7.246;2022-10-31T09:58:42;23.90;39.90
4097;DHT22;2062;50.694;7.246;2022-10-31T10:01:29;23.90;40.00
4097;DHT22;2062;50.694;7.246;2022-10-31T10:04:01;24.00;39.90
4097;DHT22;2062;50.694;7.246;2022-10-31T10:06:33;23.90;40.00
4097;DHT22;2062;50.694;7.246;2022-10-31T10:09:01;24.00;39.80
4097;DHT22;2062;50.694;7.246;2022-10-31T10:11:41;23.90;39.70
4097;DHT22;2062;50.694;7.246;2022-10-31T10:14:23;24.00;39.60
4097;DHT22;2062;50.694;7.246;2022-10-31T10:17:05;24.00;39.60
4097;DHT22;2062;50.694;7.246;2022-10-31T10:19:50;24.00;39.60
4097;DHT22;2062;50.694;7.246;2022-10-31T10:22:25;24.00;39.60
4097;DHT22;2062;50.694;7.246;2022-10-31T10:25:04;24.00;39.60
4097;DHT22;2062;50.694;7.246;2022-10-31T10:27:46;24.00;39.50
4097;DHT22;2062;50.694;7.246;2022-10-31T10:30:16;24.00;39.60
4097;DHT22;2062;50.694;7.246;2022-10-31T10:32:47;24.00;39.70
4097;DHT22;2062;50.694;7.246;2022-10-31T10:35:20;24.00;39.60
4097;DHT22;2062;50.694;7.246;2022-10-31T10:37:50;23.90;39.50
4097;DHT22;2062;50.694;7.246;2022-10-31T10:40:21;24.00;39.50
4097;DHT22;2062;50.694;7.246;2022-10-31T10:42:59;24.00;39.50
4097;DHT22;2062;50.694;7.246;2022-10-31T10:46:05;24.00;39.50
4097;DHT22;2062;50.694;7.246;2022-10-31T10:49:06;24.00;39.50
4097;DHT22;2062;50.694;7.246;2022-10-31T10:51:39;23.90;39.70
4097;DHT22;2062;50.694;7.246;2022-10-31T10:54:19;23.90;39.70
4097;DHT22;2062;50.694;7.246;2022-10-31T10:56:57;23.90;40.30
4097;DHT22;2062;50.694;7.246;2022-10-31T10:59:25;24.00;39.70
4097;DHT22;2062;50.694;7.246;2022-10-31T11:01:52;24.00;39.90
4097;DHT22;2062;50.694;7.246;2022-10-31T11:04:29;23.90;39.80
4097;DHT22;2062;50.694;7.246;2022-10-31T11:06:58;24.00;40.00
4097;DHT22;2062;50.694;7.246;2022-10-31T11:09:25;24.00;40.00
4097;DHT22;2062;50.694;7.246;2022-10-31T11:11:52;24.00;40.20
4097;DHT22;2062;50.694;7.246;2022-10-31T11:14:20;24.00;41.10
4097;DHT22;2062;50.694;7.246;2022-10-31T11:16:48;24.00;41.20
4097;DHT22;2062;50.694;7.246;2022-10-31T11:19:17;24.10;40.60
4097;DHT22;2062;50.694;7.246;2022-10-31T11:21:47;24.10;40.60
4097;DHT22;2062;50.694;7.246;2022-10-31T11:24:17;24.10;40.60
4097;DHT22;2062;50.694;7.246;2022-10-31T11:26:46;24.10;40.70
4097;DHT22;2062;50.694;7.246;2022-10-31T11:29:15;24.10;40.70
4097;DHT22;2062;50.694;7.246;2022-10-31T11:31:44;24.10;40.70
4097;DHT22;2062;50.694;7.246;2022-10-31T11:34:18;24.10;40.50
4097;DHT22;2062;50.694;7.246;2022-10-31T11:36:49;24.10;40.30
4097;DHT22;2062;50.694;7.246;2022-10-31T11:39:19;24.10;40.30
4097;DHT22;2062;50.694;7.246;2022-10-31T11:41:48;24.10;40.40
4097;DHT22;2062;50.694;7.246;2022-10-31T11:44:19;24.10;40.30
4097;DHT22;2062;50.694;7.246;2022-10-31T11:46:50;24.10;40.40
4097;DHT22;2062;50.694;7.246;2022-10-31T11:49:20;24.10;40.30
4097;DHT22;2062;50.694;7.246;2022-10-31T11:51:53;24.10;40.40
4097;DHT22;2062;50.694;7.246;2022-10-31T11:54:23;24.10;40.30
4097;DHT22;2062;50.694;7.246;2022-10-31T11:56:51;24.10;40.30
4097;DHT22;2062;50.694;7.246;2022-10-31T11:59:23;24.10;40.30
4097;DHT22;2062;50.694;7.246;2022-10-31T12:01:51;24.10;40.20
4097;DHT22;2062;50.694;7.246;2022-10-31T12:04:27;24.10;40.10
4097;DHT22;2062;50.694;7.246;2022-10-31T12:06:58;24.10;40.20
4097;DHT22;2062;50.694;7.246;2022-10-31T12:09:27;24.10;40.40
4097;DHT22;2062;50.694;7.246;2022-10-31T12:12:10;24.10;40.40
4097;DHT22;2062;50.694;7.246;2022-10-31T12:14:46;24.10;40.40
4097;DHT22;2062;50.694;7.246;2022-10-31T12:17:19;24.10;40.40
4097;DHT22;2062;50.694;7.246;2022-10-31T12:20:00;24.10;40.50
4097;DHT22;2062;50.694;7.246;2022-10-31T12:22:37;24.10;40.50
4097;DHT22;2062;50.694;7.246;2022-10-31T12:25:18;24.10;40.50
4097;DHT22;2062;50.694;7.246;2022-10-31T12:28:04;24.10;40.60
4097;DHT22;2062;50.694;7.246;2022-10-31T12:30:46;24.10;40.50
4097;DHT22;2062;50.694;7.246;2022-10-31T12:33:27;24.10;40.20
4097;DHT22;2062;50.694;7.246;2022-10-31T12:36:07;24.10;40.30
4097;DHT22;2062;50.694;7.246;2022-10-31T12:39:02;24.10;40.40
4097;DHT22;2062;50.694;7.246;2022-10-31T12:41:44;24.10;40.50
4097;DHT22;2062;50.694;7.246;2022-10-31T12:47:23;24.10;40.50
4097;DHT22;2062;50.694;7.246;2022-10-31T12:49:58;24.10;40.70
4097;DHT22;2062;50.694;7.246;2022-10-31T12:52:37;24.10;40.70
4097;DHT22;2062;50.694;7.246;2022-10-31T12:55:26;24.10;41.40
4097;DHT22;2062;50.694;7.246;2022-10-31T12:57:59;24.10;40.80
4097;DHT22;2062;50.694;7.246;2022-10-31T13:00:28;24.10;40.80
4097;DHT22;2062;50.694;7.246;2022-10-31T13:03:00;24.10;40.90
4097;DHT22;2062;50.694;7.246;2022-10-31T13:05:31;24.10;40.90
4097;DHT22;2062;50.694;7.246;2022-10-31T13:08:04;24.10;40.90
4097;DHT22;2062;50.694;7.246;2022-10-31T13:10:40;24.10;40.90
4097;DHT22;2062;50.694;7.246;2022-10-31T13:13:13;24.10;40.80
4097;DHT22;2062;50.694;7.246;2022-10-31T13:15:47;24.10;40.90
4097;DHT22;2062;50.694;7.246;2022-10-31T13:18:23;24.00;40.70
4097;DHT22;2062;50.694;7.246;2022-10-31T13:20:53;24.10;40.80
4097;DHT22;2062;50.694;7.246;2022-10-31T13:23:24;24.10;40.90
4097;DHT22;2062;50.694;7.246;2022-10-31T13:25:56;24.10;40.90
4097;DHT22;2062;50.694;7.246;2022-10-31T13:28:31;24.00;40.90
4097;DHT22;2062;50.694;7.246;2022-10-31T13:31:02;24.10;41.00
4097;DHT22;2062;50.694;7.246;2022-10-31T13:33:31;24.10;41.10
4097;DHT22;2062;50.694;7.246;2022-10-31T13:36:11;24.00;40.90
4097;DHT22;2062;50.694;7.246;2022-10-31T13:38:47;24.10;41.00
4097;DHT22;2062;50.694;7.246;2022-10-31T13:41:27;24.10;40.90
4097;DHT22;2062;50.694;7.246;2022-10-31T13:44:00;24.10;40.90
4097;DHT22;2062;50.694;7.246;2022-10-31T13:46:36;24.00;40.80
4097;DHT22;2062;50.694;7.246;2022-10-31T13:49:03;24.10;40.90
4097;DHT22;2062;50.694;7.246;2022-10-31T13:51:31;24.00;40.90
4097;DHT22;2062;50.694;7.246;2022-10-31T13:54:01;24.10;40.90
4097;DHT22;2062;50.694;7.246;2022-10-31T13:56:34;24.10;40.90
4097;DHT22;2062;50.694;7.246;2022-10-31T13:59:12;24.00;40.80
4097;DHT22;2062;50.694;7.246;2022-10-31T14:01:50;24.10;40.90
4097;DHT22;2062;50.694;7.246;2022-10-31T14:04:20;24.00;40.80
4097;DHT22;2062;50.694;7.246;2022-10-31T14:07:04;24.00;40.80
4097;DHT22;2062;50.694;7.246;2022-10-31T14:09:33;24.00;40.80
4097;DHT22;2062;50.694;7.246;2022-10-31T14:12:06;24.00;40.80
4097;DHT22;2062;50.694;7.246;2022-10-31T14:14:42;24.00;40.80
4097;DHT22;2062;50.694;7.246;2022-10-31T14:17:17;24.00;40.80
4097;DHT22;2062;50.694;7.246;2022-10-31T14:19:58;24.00;40.80
4097;DHT22;2062;50.694;7.246;2022-10-31T14:22:29;24.00;40.90
4097;DHT22;2062;50.694;7.246;2022-10-31T14:24:56;24.00;40.90
4097;DHT22;2062;50.694;7.246;2022-10-31T14:27:43;24.00;40.90
4097;DHT22;2062;50.694;7.246;2022-10-31T14:30:15;24.00;40.80
4097;DHT22;2062;50.694;7.246;2022-10-31T14:32:42;24.00;40.90
4097;DHT22;2062;50.694;7.246;2022-10-31T14:35:14;24.00;40.80
4097;DHT22;2062;50.694;7.246;2022-10-31T14:38:01;24.00;40.90
4097;DHT22;2062;50.694;7.246;2022-10-31T14:40:35;24.00;40.90
4097;DHT22;2062;50.694;7.246;2022-10-31T14:43:20;24.00;40.90
4097;DHT22;2062;50.694;7.246;2022-10-31T14:45:55;23.90;40.90
4097;DHT22;2062;50.694;7.246;2022-10-31T14:48:39;24.00;40.90
4097;DHT22;2062;50.694;7.246;2022-10-31T14:51:13;23.90;40.90
4097;DHT22;2062;50.694;7.246;2022-10-31T14:53:45;23.90;40.90
4097;DHT22;2062;50.694;7.246;2022-10-31T14:56:19;23.90;40.90
4097;DHT22;2062;50.694;7.246;2022-10-31T14:58:48;23.90;40.90
4097;DHT22;2062;50.694;7.246;2022-10-31T15:01:21;23.90;40.90
4097;DHT22;2062;50.694;7.246;2022-10-31T15:03:49;23.90;40.90
4097;DHT22;2062;50.694;7.246;2022-10-31T15:06:19;23.90;40.90
4097;DHT22;2062;50.694;7.246;2022-10-31T15:08:49;23.90;40.90
4097;DHT22;2062;50.694;7.246;2022-10-31T15:11:18;23.90;40.90
4097;DHT22;2062;50.694;7.246;2022-10-31T15:13:48;23.90;40.90
4097;DHT22;2062;50.694;7.246;2022-10-31T15:16:18;23.90;40.90
4097;DHT22;2062;50.694;7.246;2022-10-31T15:18:49;23.90;40.90
4097;DHT22;2062;50.694;7.246;2022-10-31T15:21:17;23.90;40.90
4097;DHT22;2062;50.694;7.246;2022-10-31T15:23:46;23.90;40.90
4097;DHT22;2062;50.694;7.246;2022-10-31T15:26:17;23.90;40.90
4097;DHT22;2062;50.694;7.246;2022-10-31T15:28:44;23.80;40.80
4097;DHT22;2062;50.694;7.246;2022-10-31T15:31:17;23.80;40.80
4097;DHT22;2062;50.694;7.246;2022-10-31T15:33:48;23.90;40.90
4097;DHT22;2062;50.694;7.246;2022-10-31T15:36:20;23.90;40.90
4097;DHT22;2062;50.694;7.246;2022-10-31T15:38:48;23.90;40.90
4097;DHT22;2062;50.694;7.246;2022-10-31T15:41:23;23.90;40.90
4097;DHT22;2062;50.694;7.246;2022-10-31T15:43:51;23.90;40.90
4097;DHT22;2062;50.694;7.246;2022-10-31T15:46:19;23.80;40.80
4097;DHT22;2062;50.694;7.246;2022-10-31T15:48:47;23.80;40.70
4097;DHT22;2062;50.694;7.246;2022-10-31T15:51:14;23.80;40.80
4097;DHT22;2062;50.694;7.246;2022-10-31T15:53:45;23.80;40.80
4097;DHT22;2062;50.694;7.246;2022-10-31T15:56:18;23.80;40.80
4097;DHT22;2062;50.694;7.246;2022-10-31T15:58:48;23.80;40.80
4097;DHT22;2062;50.694;7.246;2022-10-31T16:01:27;23.80;40.80
4097;DHT22;2062;50.694;7.246;2022-10-31T16:04:04;23.80;40.80
4097;DHT22;2062;50.694;7.246;2022-10-31T16:06:33;23.80;40.80
4097;DHT22;2062;50.694;7.246;2022-10-31T16:09:00;23.80;40.80
4097;DHT22;2062;50.694;7.246;2022-10-31T16:11:34;23.80;40.80
4097;DHT22;2062;50.694;7.246;2022-10-31T16:14:04;23.80;40.80
4097;DHT22;2062;50.694;7.246;2022-10-31T16:16:39;23.80;40.80
4097;DHT22;2062;50.694;7.246;2022-10-31T16:19:15;23.80;40.80
4097;DHT22;2062;50.694;7.246;2022-10-31T16:21:43;23.80;40.80
4097;DHT22;2062;50.694;7.246;2022-10-31T16:24:16;23.80;40.80
4097;DHT22;2062;50.694;7.246;2022-10-31T16:26:48;23.80;40.80
4097;DHT22;2062;50.694;7.246;2022-10-31T16:29:25;23.80;40.80